Time;durP1;ratioP1;P1;durP2;ratioP2;P2;SDS_P1;SDS_P2;PMS_P1;PMS_P2;Temp;Humidity;BMP_temperature;BMP_pressure;BME280_temperature;BME280_humidity;BME280_pressure;Samples;Min_cycle;Max_cycle;Signal;HPM_P1;HPM_P2
2021/04/15 00:01:22;;;;;;;8.60;2.08;;;1.60;99.90;;;;;;4992912;28;20046;-90
2021/04/15 00:03:49;;;;;;;4.93;2.13;;;1.60;99.90;;;;;;5012403;28;20129;-90
2021/04/15 00:06:19;;;;;;;7.75;2.97;;;1.40;99.90;;;;;;4993598;28;20060;-89
2021/04/15 00:08:45;;;;;;;8.55;2.38;;;1.40;99.90;;;;;;4994600;28;20044;-90
2021/04/15 00:11:14;;;;;;;13.68;2.40;;;1.30;99.90;;;;;;5011462;28;20056;-89
2021/04/15 00:13:43;;;;;;;8.02;2.35;;;1.30;99.90;;;;;;4994822;28;20053;-89
2021/04/15 00:16:10;;;;;;;92.55;3.20;;;1.20;99.90;;;;;;5011108;28;20121;-90
2021/04/15 00:18:36;;;;;;;8.80;2.42;;;1.20;99.90;;;;;;4974786;28;20162;-89
2021/04/15 00:21:04;;;;;;;9.02;3.70;;;1.10;99.90;;;;;;5005777;28;20057;-88
2021/04/15 00:23:30;;;;;;;9.73;3.22;;;1.20;99.90;;;;;;4984352;28;20050;-89
2021/04/15 00:25:57;;;;;;;6.05;3.20;;;1.20;99.90;;;;;;5012537;28;20042;-89
2021/04/15 00:28:23;;;;;;;9.75;3.65;;;1.10;99.90;;;;;;4993827;28;20073;-89
2021/04/15 00:30:50;;;;;;;8.20;3.63;;;1.10;99.90;;;;;;4975287;28;20109;-89
2021/04/15 00:33:16;;;;;;;15.60;4.28;;;1.10;99.90;;;;;;4992746;28;20131;-90
2021/04/15 00:35:42;;;;;;;7.82;3.55;;;1.10;99.90;;;;;;4994196;28;20125;-89
2021/04/15 00:38:10;;;;;;;19.45;4.68;;;1.10;99.90;;;;;;4993195;28;20064;-89
2021/04/15 00:40:38;;;;;;;19.77;4.28;;;1.10;99.90;;;;;;4994235;28;20046;-90
2021/04/15 00:43:04;;;;;;;19.50;4.47;;;1.10;99.90;;;;;;4993700;28;20046;-88
2021/04/15 00:45:36;;;;;;;24.40;5.30;;;1.10;99.90;;;;;;4990107;28;20617;-90
2021/04/15 00:48:26;;;;;;;15.05;4.47;;;1.10;99.90;;;;;;5011655;28;20049;-89
2021/04/15 00:51:02;;;;;;;12.38;4.13;;;1.10;99.90;;;;;;5011568;28;20042;-89
2021/04/15 00:53:36;;;;;;;289.35;8.88;;;1.10;99.90;;;;;;5010931;28;20481;-89
2021/04/15 00:56:03;;;;;;;108.03;3.50;;;1.00;99.90;;;;;;4993957;28;20034;-90
2021/04/15 00:58:30;;;;;;;7.60;3.03;;;0.90;99.90;;;;;;5010340;28;20080;-88
2021/04/15 01:00:57;;;;;;;91.65;3.88;;;0.90;99.90;;;;;;5007058;28;20038;-88
2021/04/15 01:03:23;;;;;;;66.65;2.17;;;1.00;99.90;;;;;;4985126;28;20152;-88
2021/04/15 01:05:50;;;;;;;75.97;2.72;;;0.90;99.90;;;;;;4977906;28;20113;-89
2021/04/15 01:08:17;;;;;;;162.52;3.05;;;0.80;99.90;;;;;;4975473;28;20046;-89
2021/04/15 01:11:08;;;;;;;240.18;3.63;;;0.70;99.90;;;;;;4989212;28;20096;-90
2021/04/15 01:14:05;;;;;;;266.23;4.35;;;0.70;99.90;;;;;;4969780;28;20123;-90
2021/04/15 01:16:58;;;;;;;253.57;4.13;;;0.70;99.90;;;;;;4986338;28;20049;-89
2021/04/15 01:20:02;;;;;;;193.43;3.42;;;0.60;99.90;;;;;;4996463;28;20088;-90
2021/04/15 01:22:45;;;;;;;133.65;2.33;;;0.60;99.90;;;;;;5010012;28;20655;-90
2021/04/15 01:25:19;;;;;;;212.13;3.88;;;0.60;99.90;;;;;;4981036;28;20064;-89
2021/04/15 01:27:49;;;;;;;437.48;7.38;;;0.70;99.90;;;;;;4993163;28;20492;-89
2021/04/15 01:30:41;;;;;;;372.50;5.90;;;0.70;99.90;;;;;;5009557;28;20049;-89
2021/04/15 01:33:24;;;;;;;259.33;3.63;;;0.80;99.90;;;;;;4993004;28;20058;-89
2021/04/15 01:36:02;;;;;;;203.50;3.38;;;0.80;99.90;;;;;;4992813;28;20434;-89
2021/04/15 01:38:32;;;;;;;226.15;5.10;;;0.70;99.90;;;;;;5007262;28;20122;-89
2021/04/15 01:41:22;;;;;;;136.98;2.38;;;0.80;99.90;;;;;;4992832;28;20477;-90
2021/04/15 01:43:55;;;;;;;107.60;2.17;;;0.80;99.90;;;;;;4992264;28;20034;-90
2021/04/15 01:46:26;;;;;;;113.35;1.80;;;0.70;99.90;;;;;;4992005;28;20049;-90
2021/04/15 01:48:53;;;;;;;222.05;3.83;;;0.80;99.90;;;;;;4992900;28;20037;-90
2021/04/15 01:51:23;;;;;;;144.70;3.03;;;0.80;99.90;;;;;;5009269;28;20132;-89
2021/04/15 01:53:51;;;;;;;142.90;3.37;;;0.80;99.90;;;;;;4991018;28;20116;-90
2021/04/15 01:56:21;;;;;;;190.65;3.00;;;0.80;99.90;;;;;;5008644;28;20308;-90
2021/04/15 01:59:14;;;;;;;126.68;2.65;;;0.80;99.90;;;;;;4992108;28;20121;-89
2021/04/15 02:01:46;;;;;;;256.33;5.00;;;0.80;99.90;;;;;;5009888;28;20574;-90
2021/04/15 02:04:18;;;;;;;228.85;3.80;;;0.80;99.90;;;;;;4991754;28;20401;-89
2021/04/15 02:06:48;;;;;;;133.45;3.13;;;0.80;99.90;;;;;;5009959;28;20045;-90
2021/04/15 02:09:16;;;;;;;;;;;0.80;99.90;;;;;;4991973;28;20048;-89
2021/04/15 02:12:06;;;;;;;369.77;5.53;;;0.80;99.90;;;;;;4982334;28;19968;-89
2021/04/15 02:15:06;;;;;;;160.48;2.72;;;0.70;99.90;;;;;;4995535;28;20049;-89
2021/04/15 02:17:36;;;;;;;172.90;4.22;;;0.70;99.90;;;;;;4990972;28;20053;-90
2021/04/15 02:20:05;;;;;;;159.35;3.47;;;0.90;99.90;;;;;;5010103;28;20176;-89
2021/04/15 02:22:52;;;;;;;196.98;4.18;;;0.70;99.90;;;;;;5008709;28;20250;-89
2021/04/15 02:25:41;;;;;;;120.65;3.97;;;0.60;99.90;;;;;;4999176;28;20043;-89
2021/04/15 02:28:22;;;;;;;451.20;8.25;;;0.60;99.90;;;;;;4991969;28;20555;-88
2021/04/15 02:30:49;;;;;;;;;;;0.70;99.90;;;;;;5010443;28;20066;-88
2021/04/15 02:33:27;;;;;;;131.45;3.78;;;0.60;99.90;;;;;;5008271;28;19925;-87
2021/04/15 02:35:59;;;;;;;147.77;5.03;;;0.60;99.90;;;;;;5009398;28;20066;-88
2021/04/15 02:38:56;;;;;;;16.73;4.93;;;0.60;99.90;;;;;;4991246;28;20120;-88
2021/04/15 02:41:26;;;;;;;19.80;3.90;;;0.50;99.90;;;;;;5008840;28;20042;-87
2021/04/15 02:44:19;;;;;;;18.10;4.07;;;0.60;99.90;;;;;;4991702;28;20060;-88
2021/04/15 02:46:56;;;;;;;16.48;4.10;;;0.50;99.90;;;;;;4991521;28;20053;-88
2021/04/15 02:49:27;;;;;;;12.05;2.92;;;0.50;99.90;;;;;;4991610;28;20474;-87
2021/04/15 02:52:02;;;;;;;19.45;4.68;;;0.50;99.90;;;;;;4988928;28;20074;-89
2021/04/15 02:54:32;;;;;;;12.98;3.80;;;0.60;99.90;;;;;;4984962;28;20045;-89
2021/04/15 02:57:06;;;;;;;19.85;3.78;;;0.80;99.90;;;;;;5009172;28;20436;-87
2021/04/15 02:59:38;;;;;;;15.68;3.85;;;0.70;99.90;;;;;;4991292;28;20042;-88
2021/04/15 03:02:11;;;;;;;10.45;3.08;;;0.80;99.90;;;;;;5009641;28;20077;-88
2021/04/15 03:04:42;;;;;;;22.20;3.40;;;0.90;99.90;;;;;;4975232;28;20088;-88
2021/04/15 03:07:10;;;;;;;18.27;4.25;;;0.80;99.90;;;;;;4991779;28;20046;-88
2021/04/15 03:09:39;;;;;;;18.55;3.30;;;0.70;99.90;;;;;;5012152;28;20577;-88
2021/04/15 03:12:29;;;;;;;27.73;4.20;;;0.70;99.90;;;;;;4995477;28;20120;-88
2021/04/15 03:15:10;;;;;;;16.10;3.03;;;0.70;99.90;;;;;;4984271;28;20042;-88
2021/04/15 03:17:38;;;;;;;;;;;0.90;99.90;;;;;;5012376;28;20078;-89
2021/04/15 03:20:28;;;;;;;17.38;3.40;;;1.20;99.90;;;;;;4995399;28;20016;-88
2021/04/15 03:23:08;;;;;;;28.17;3.45;;;1.00;99.90;;;;;;5012882;28;20117;-89
2021/04/15 03:25:33;;;;;;;21.02;3.42;;;1.00;99.90;;;;;;4978732;28;20149;-88
2021/04/15 03:28:17;;;;;;;17.02;4.03;;;1.00;99.90;;;;;;4995296;28;20512;-89
2021/04/15 03:30:58;;;;;;;14.82;3.30;;;1.10;99.90;;;;;;4993626;28;20046;-91
2021/04/15 03:34:00;;;;;;;14.35;3.60;;;1.20;99.90;;;;;;4998489;28;20502;-89
2021/04/15 03:36:32;;;;;;;13.27;2.92;;;1.20;99.90;;;;;;4991130;28;20199;-90
2021/04/15 03:39:26;;;;;;;15.02;3.35;;;1.20;99.90;;;;;;4994602;28;20065;-88
2021/04/15 03:42:00;;;;;;;16.88;3.20;;;1.20;99.90;;;;;;5006807;28;20500;-87
2021/04/15 03:44:28;;;;;;;13.57;3.35;;;1.20;99.90;;;;;;5011818;28;20049;-88
2021/04/15 03:46:59;;;;;;;24.92;4.22;;;1.20;99.90;;;;;;5012643;28;20504;-89
2021/04/15 03:49:44;;;;;;;17.27;3.47;;;1.30;99.90;;;;;;4993781;28;20042;-88
2021/04/15 03:52:21;;;;;;;22.52;3.08;;;1.30;99.90;;;;;;4985601;28;20045;-89
2021/04/15 03:54:52;;;;;;;18.50;3.15;;;1.40;99.90;;;;;;5012081;28;20069;-89
2021/04/15 03:57:21;;;;;;;22.40;2.90;;;1.50;99.90;;;;;;4994935;28;20130;-89
2021/04/15 04:00:07;;;;;;;11.02;2.70;;;1.70;99.90;;;;;;5011776;28;20125;-88
2021/04/15 04:02:39;;;;;;;25.27;3.30;;;1.60;99.90;;;;;;4994392;28;20042;-89
2021/04/15 04:05:11;;;;;;;8.32;2.50;;;1.80;99.90;;;;;;4978166;28;20049;-89
2021/04/15 04:07:53;;;;;;;21.80;2.70;;;1.80;99.90;;;;;;4994018;28;20485;-89
2021/04/15 04:10:33;;;;;;;8.98;2.28;;;1.90;99.90;;;;;;4994414;28;20412;-89
2021/04/15 04:13:33;;;;;;;11.20;3.03;;;2.00;99.90;;;;;;4994750;28;20194;-89
2021/04/15 04:16:10;;;;;;;14.35;2.65;;;2.00;99.90;;;;;;4994119;28;20038;-89
2021/04/15 04:19:02;;;;;;;15.88;3.00;;;2.10;99.90;;;;;;4993533;28;20088;-91
2021/04/15 04:21:33;;;;;;;14.70;2.65;;;2.10;99.90;;;;;;5011023;28;20045;-89
2021/04/15 04:24:14;;;;;;;14.65;3.30;;;2.20;99.90;;;;;;4994448;28;20100;-88
2021/04/15 04:26:53;;;;;;;25.42;3.58;;;2.20;99.90;;;;;;4980903;28;20076;-88
2021/04/15 04:29:42;;;;;;;15.00;3.60;;;2.30;99.90;;;;;;4994297;28;20038;-88
2021/04/15 04:32:11;;;;;;;24.85;4.18;;;2.30;99.90;;;;;;4985607;28;20096;-88
2021/04/15 04:34:38;;;;;;;17.93;3.83;;;2.20;99.90;;;;;;5010822;28;20038;-88
2021/04/15 04:37:08;;;;;;;20.63;3.35;;;2.30;99.90;;;;;;4977833;28;20045;-89
2021/04/15 04:39:34;;;;;;;21.88;3.60;;;2.30;99.90;;;;;;4993681;28;20053;-89
2021/04/15 04:42:22;;;;;;;23.48;4.78;;;2.30;99.90;;;;;;4985246;28;20046;-88
2021/04/15 04:44:56;;;;;;;19.17;4.00;;;2.30;99.90;;;;;;4973567;28;20432;-89
2021/04/15 04:47:48;;;;;;;19.30;4.45;;;2.30;99.90;;;;;;5011378;28;20037;-90
2021/04/15 04:50:23;;;;;;;24.23;4.95;;;2.40;99.90;;;;;;4993681;28;20108;-88
2021/04/15 04:52:56;;;;;;;20.67;4.50;;;2.40;99.90;;;;;;4985358;28;20053;-88
2021/04/15 04:55:47;;;;;;;19.67;3.92;;;2.30;99.90;;;;;;4993671;28;20068;-89
2021/04/15 04:58:19;;;;;;;21.08;4.40;;;2.40;99.90;;;;;;4993294;28;20401;-87
2021/04/15 05:00:51;;;;;;;21.88;4.40;;;2.40;99.90;;;;;;4993377;28;20495;-87
2021/04/15 05:03:29;;;;;;;27.08;5.18;;;2.80;99.90;;;;;;5005707;28;20049;-88
2021/04/15 05:06:24;;;;;;;25.50;5.03;;;2.50;99.90;;;;;;5010517;28;20493;-87
2021/04/15 05:08:56;;;;;;;22.80;4.93;;;2.50;99.90;;;;;;4990719;28;20050;-88
2021/04/15 05:11:26;;;;;;;30.95;5.03;;;2.50;99.90;;;;;;5011129;28;20030;-88
2021/04/15 05:14:00;;;;;;;20.75;4.40;;;2.60;99.90;;;;;;4994304;28;20072;-88
2021/04/15 05:16:32;;;;;;;21.25;4.70;;;2.60;99.90;;;;;;4993163;28;20409;-88
2021/04/15 05:18:58;;;;;;;23.27;4.65;;;2.60;99.90;;;;;;4993398;28;20038;-87
2021/04/15 05:21:26;;;;;;;16.65;4.45;;;2.70;99.90;;;;;;4976172;28;20053;-87
2021/04/15 05:24:23;;;;;;;15.82;4.88;;;2.90;99.90;;;;;;5010138;28;20038;-88
2021/04/15 05:26:51;;;;;;;13.00;4.70;;;2.80;99.90;;;;;;4992695;28;20176;-87
2021/04/15 05:29:26;;;;;;;19.92;5.20;;;2.80;99.90;;;;;;4993166;28;20481;-88
2021/04/15 05:31:54;;;;;;;16.58;4.32;;;3.00;99.90;;;;;;4991076;28;20146;-89
2021/04/15 05:34:25;;;;;;;15.50;5.05;;;3.00;99.90;;;;;;5010284;28;20503;-88
2021/04/15 05:36:53;;;;;;;;;;;3.00;99.90;;;;;;4992412;28;20042;-88
2021/04/15 05:39:21;;;;;;;10.98;4.57;;;3.00;99.90;;;;;;4993033;28;19925;-87
2021/04/15 05:41:56;;;;;;;20.52;5.22;;;3.00;99.90;;;;;;4991526;28;20099;-87
2021/04/15 05:44:42;;;;;;;26.67;5.45;;;3.00;99.90;;;;;;5010327;28;20077;-88
2021/04/15 05:47:18;;;;;;;28.80;4.45;;;3.10;99.90;;;;;;4981848;28;20076;-87
2021/04/15 05:49:48;;;;;;;9.70;3.58;;;3.10;99.90;;;;;;5009172;28;20062;-87
2021/04/15 05:52:36;;;;;;;21.90;4.25;;;3.20;99.90;;;;;;4992581;28;20116;-87
2021/04/15 05:55:13;;;;;;;16.67;3.78;;;3.30;99.90;;;;;;5009915;28;20042;-87
2021/04/15 05:57:43;;;;;;;16.02;3.97;;;3.30;99.90;;;;;;4991973;28;20042;-88
2021/04/15 06:00:18;;;;;;;20.67;4.47;;;3.40;99.90;;;;;;4992436;28;20121;-87
2021/04/15 06:02:43;;;;;;;11.77;4.40;;;3.40;99.90;;;;;;4990889;28;20049;-89
2021/04/15 06:05:23;;;;;;;20.67;3.85;;;3.40;99.90;;;;;;5012078;28;20041;-88
2021/04/15 06:07:52;;;;;;;10.90;4.28;;;3.50;99.90;;;;;;5000720;28;20038;-91
2021/04/15 06:10:21;;;;;;;16.05;3.17;;;3.60;99.90;;;;;;4980939;28;20070;-90
2021/04/15 06:13:30;;;;;;;16.10;3.97;;;3.60;99.90;;;;;;4998401;28;20121;-90
2021/04/15 06:16:02;;;;;;;16.85;4.03;;;3.60;99.90;;;;;;4987000;28;20034;-88
2021/04/15 06:18:37;;;;;;;18.55;3.22;;;3.70;99.90;;;;;;4982040;28;20117;-89
2021/04/15 06:21:23;;;;;;;15.57;3.10;;;3.70;99.90;;;;;;5004377;28;20543;-90
2021/04/15 06:23:53;;;;;;;17.60;4.57;;;3.80;99.90;;;;;;4979358;28;20050;-88
2021/04/15 06:26:46;;;;;;;16.58;3.70;;;3.80;99.90;;;;;;4989982;28;20592;-88
2021/04/15 06:29:51;;;;;;;18.45;3.20;;;3.90;99.90;;;;;;4986256;28;20409;-89
2021/04/15 06:32:44;;;;;;;14.93;3.63;;;3.90;99.90;;;;;;4991286;28;20504;-91
2021/04/15 06:35:20;;;;;;;22.27;4.03;;;4.00;99.90;;;;;;4986899;28;20038;-89
2021/04/15 06:37:49;;;;;;;14.43;3.10;;;4.00;99.90;;;;;;4986398;28;20042;-91
2021/04/15 06:40:15;;;;;;;21.25;3.70;;;4.10;99.90;;;;;;4991985;28;20060;-90
2021/04/15 06:42:46;;;;;;;15.20;3.45;;;4.10;99.90;;;;;;4990626;28;20477;-90
2021/04/15 06:45:32;;;;;;;14.93;3.65;;;4.20;99.90;;;;;;5009621;28;20551;-90
2021/04/15 06:48:35;;;;;;;12.43;3.70;;;4.20;99.90;;;;;;5004088;28;20139;-91
2021/04/15 06:51:19;;;;;;;14.73;3.33;;;4.30;99.90;;;;;;4991593;28;20046;-90
2021/04/15 06:54:16;;;;;;;11.82;2.90;;;4.30;99.90;;;;;;4976047;28;20100;-90
2021/04/15 06:56:58;;;;;;;17.98;3.83;;;4.40;99.90;;;;;;4987179;28;20037;-90
2021/04/15 06:59:39;;;;;;;12.52;2.90;;;4.50;99.90;;;;;;4990626;28;20045;-90
2021/04/15 07:02:10;;;;;;;12.80;3.55;;;4.50;99.90;;;;;;4991260;28;20066;-90
2021/04/15 07:05:02;;;;;;;11.70;3.28;;;4.60;99.90;;;;;;4997422;28;20126;-92
2021/04/15 07:07:35;;;;;;;24.50;4.30;;;4.60;99.90;;;;;;4991275;28;20052;-91
2021/04/15 07:10:23;;;;;;;19.02;2.67;;;4.60;99.90;;;;;;4994735;28;20054;-93
2021/04/15 07:13:23;;;;;;;17.48;3.92;;;4.70;99.90;;;;;;5008309;28;20064;-92
2021/04/15 07:16:05;;;;;;;20.25;3.45;;;4.70;99.90;;;;;;4975139;28;20379;-92
2021/04/15 07:18:51;;;;;;;27.10;4.10;;;4.70;99.90;;;;;;4990966;28;20046;-91
2021/04/15 07:21:36;;;;;;;17.30;3.70;;;4.70;99.90;;;;;;4991016;28;20068;-91
2021/04/15 07:24:20;;;;;;;15.00;3.53;;;4.80;99.90;;;;;;5007869;28;20656;-91
2021/04/15 07:27:23;;;;;;;24.73;3.72;;;4.80;99.90;;;;;;4979187;28;20112;-91
2021/04/15 07:30:27;;;;;;;14.93;3.78;;;5.00;99.90;;;;;;4990480;28;20038;-91
2021/04/15 07:33:14;;;;;;;12.25;3.65;;;5.00;99.90;;;;;;5007640;28;20066;-91
2021/04/15 07:36:17;;;;;;;19.98;4.20;;;5.10;99.90;;;;;;4979014;28;20042;-90
2021/04/15 07:38:43;;;;;;;17.88;3.33;;;5.10;99.90;;;;;;4983777;28;20044;-89
2021/04/15 07:41:47;;;;;;;10.63;3.10;;;5.10;99.90;;;;;;5008710;28;20050;-91
2021/04/15 07:44:23;;;;;;;10.35;4.53;;;5.10;99.90;;;;;;4977280;28;20054;-92
2021/04/15 07:47:08;;;;;;;11.10;3.80;;;5.10;99.90;;;;;;4990300;28;20054;-91
2021/04/15 07:50:07;;;;;;;8.32;2.83;;;5.10;99.90;;;;;;5008721;28;20532;-91
2021/04/15 07:52:51;;;;;;;11.43;3.67;;;5.10;99.90;;;;;;4985150;28;20038;-90
2021/04/15 07:55:38;;;;;;;6.53;2.88;;;5.10;99.90;;;;;;5009177;28;20395;-91
2021/04/15 07:58:39;;;;;;;11.50;2.92;;;5.10;99.90;;;;;;4994521;28;20045;-91
2021/04/15 08:01:34;;;;;;;5.35;2.30;;;5.10;99.90;;;;;;4992170;28;20038;-93
2021/04/15 08:04:22;;;;;;;7.63;3.08;;;5.20;99.90;;;;;;5001911;28;20072;-92
2021/04/15 08:07:00;;;;;;;10.13;3.40;;;5.20;99.90;;;;;;4993940;28;20038;-90
2021/04/15 08:09:41;;;;;;;9.65;2.45;;;5.20;99.90;;;;;;4994668;28;20113;-92
2021/04/15 08:12:34;;;;;;;9.43;2.90;;;5.30;99.90;;;;;;5011505;28;20196;-93
2021/04/15 08:15:07;;;;;;;9.95;3.72;;;5.30;99.90;;;;;;4997418;28;20050;-91
2021/04/15 08:18:10;;;;;;;10.50;3.55;;;5.40;99.90;;;;;;4985640;28;20042;-92
2021/04/15 08:21:03;;;;;;;8.10;2.85;;;5.40;99.90;;;;;;5010440;28;20049;-92
2021/04/15 08:24:01;;;;;;;11.57;3.33;;;5.40;99.90;;;;;;5002527;28;20408;-92
2021/04/15 08:27:04;;;;;;;12.07;3.20;;;5.50;99.90;;;;;;4993646;28;20072;-93
2021/04/15 08:29:38;;;;;;;11.32;3.00;;;5.50;99.90;;;;;;4993283;28;20042;-92
2021/04/15 08:32:31;;;;;;;8.25;2.67;;;5.50;99.90;;;;;;4993773;28;20158;-91
2021/04/15 08:35:03;;;;;;;9.80;3.17;;;5.60;99.90;;;;;;4992728;28;20497;-91
2021/04/15 08:37:47;;;;;;;10.55;3.25;;;5.60;99.90;;;;;;4993954;28;20034;-92
2021/04/15 08:40:19;;;;;;;9.15;2.72;;;5.60;99.90;;;;;;4993486;28;20076;-92
2021/04/15 08:43:13;;;;;;;8.55;3.40;;;5.70;99.90;;;;;;4994249;28;20121;-92
2021/04/15 08:45:56;;;;;;;19.33;3.70;;;5.80;99.90;;;;;;4985931;28;20050;-92
2021/04/15 08:48:36;;;;;;;13.85;3.33;;;5.90;99.90;;;;;;5008104;28;20482;-93
2021/04/15 08:51:26;;;;;;;18.13;3.13;;;5.90;99.90;;;;;;4989314;28;20052;-92
2021/04/15 08:54:30;;;;;;;9.98;2.95;;;6.00;99.90;;;;;;4996800;28;20092;-89
2021/04/15 08:57:22;;;;;;;12.30;2.85;;;6.00;99.90;;;;;;4990974;28;20042;-91
2021/04/15 09:00:21;;;;;;;9.68;3.00;;;6.00;99.90;;;;;;5010504;28;20046;-91
2021/04/15 09:03:03;;;;;;;7.35;2.50;;;6.10;99.90;;;;;;5008259;28;20068;-93
2021/04/15 09:06:21;;;;;;;8.20;3.38;;;6.10;99.90;;;;;;4992051;28;20092;-92
2021/04/15 09:08:56;;;;;;;17.98;3.45;;;6.20;99.90;;;;;;4963760;28;20050;-91
2021/04/15 09:11:39;;;;;;;5.97;1.80;;;6.30;99.90;;;;;;4980220;28;20045;-93
2021/04/15 09:14:34;;;;;;;12.68;2.20;;;6.40;99.90;;;;;;4976468;28;20510;-93
2021/04/15 09:17:07;;;;;;;4.90;2.03;;;6.50;99.90;;;;;;4992922;28;20042;-92
2021/04/15 09:20:17;;;;;;;5.22;2.10;;;6.60;99.90;;;;;;4993158;28;20048;-92
2021/04/15 09:23:17;;;;;;;11.55;2.90;;;6.60;99.90;;;;;;4937650;28;20103;-92
2021/04/15 09:25:58;;;;;;;8.45;3.30;;;6.80;99.90;;;;;;4986845;28;20050;-92
2021/04/15 09:28:35;;;;;;;6.90;2.72;;;6.80;99.90;;;;;;4993287;28;20152;-91
2021/04/15 09:31:20;;;;;;;11.43;2.72;;;7.00;99.90;;;;;;4992272;28;20049;-91
2021/04/15 09:34:17;;;;;;;3.53;2.00;;;7.10;99.90;;;;;;4992606;28;20053;-90
2021/04/15 09:36:55;;;;;;;5.70;2.65;;;7.10;99.90;;;;;;4992009;28;20065;-89
2021/04/15 09:39:24;;;;;;;8.20;1.80;;;7.10;99.90;;;;;;4992605;28;20045;-90
2021/04/15 09:42:01;;;;;;;4.60;2.03;;;7.30;99.90;;;;;;4994780;28;20395;-92
2021/04/15 09:45:01;;;;;;;7.65;1.88;;;7.30;99.90;;;;;;4975069;28;20041;-91
2021/04/15 09:47:35;;;;;;;5.55;2.58;;;7.40;99.90;;;;;;5008407;28;20037;-93
2021/04/15 09:50:07;;;;;;;6.47;2.10;;;7.50;99.90;;;;;;4976239;28;20038;-90
2021/04/15 09:52:54;;;;;;;6.05;2.00;;;7.60;99.90;;;;;;4981453;28;20466;-90
2021/04/15 09:55:34;;;;;;;8.25;1.80;;;7.70;99.90;;;;;;5004577;28;20037;-90
2021/04/15 09:58:03;;;;;;;;;;;7.80;99.90;;;;;;4992437;28;20048;-89
2021/04/15 10:00:51;;;;;;;4.03;1.60;;;7.90;99.90;;;;;;4976115;28;19925;-91
2021/04/15 10:03:25;;;;;;;2.92;1.65;;;7.80;99.90;;;;;;5003493;28;20136;-91
2021/04/15 10:05:56;;;;;;;3.03;1.90;;;7.70;99.90;;;;;;4976058;28;20444;-91
2021/04/15 10:08:25;;;;;;;4.65;1.58;;;7.80;99.90;;;;;;4991246;28;20044;-90
2021/04/15 10:11:03;;;;;;;2.97;1.50;;;7.90;99.90;;;;;;4991672;28;20725;-90
2021/04/15 10:13:32;;;;;;;5.90;1.70;;;7.90;99.90;;;;;;5000817;28;20057;-90
2021/04/15 10:16:07;;;;;;;3.60;1.85;;;7.90;99.90;;;;;;4964752;28;20053;-91
2021/04/15 10:18:51;;;;;;;4.15;1.77;;;8.00;99.90;;;;;;4991450;28;20125;-92
2021/04/15 10:21:20;;;;;;;3.42;1.52;;;8.10;99.90;;;;;;5007050;28;20046;-91
2021/04/15 10:24:02;;;;;;;2.93;1.90;;;8.20;99.90;;;;;;4991674;28;20400;-91
2021/04/15 10:26:52;;;;;;;5.85;1.70;;;8.30;99.90;;;;;;5008802;28;20085;-90
2021/04/15 10:29:27;;;;;;;6.63;2.07;;;8.40;99.90;;;;;;4991049;28;20053;-93
2021/04/15 10:32:08;;;;;;;8.77;2.33;;;8.50;99.90;;;;;;4991930;28;20276;-91
2021/04/15 10:34:52;;;;;;;9.38;2.20;;;8.50;99.90;;;;;;5009159;28;20061;-90
2021/04/15 10:37:22;;;;;;;8.55;2.17;;;8.50;99.90;;;;;;4980137;28;20047;-92
2021/04/15 10:40:13;;;;;;;10.57;2.20;;;8.60;99.90;;;;;;4974639;28;20046;-90
2021/04/15 10:42:44;;;;;;;;;;;8.60;99.90;;;;;;4980653;28;20042;-88
2021/04/15 10:45:52;;;;;;;8.32;1.90;;;8.70;99.90;;;;;;4974885;28;20399;-89
2021/04/15 10:48:25;;;;;;;7.93;1.92;;;8.80;99.90;;;;;;4891547;29;20068;-89
2021/04/15 10:50:50;;;;;;;6.65;1.65;;;8.70;99.90;;;;;;4982960;28;20078;-88
2021/04/15 10:53:40;;;;;;;14.15;2.30;;;8.70;99.90;;;;;;4989754;28;20089;-92
2021/04/15 10:56:08;;;;;;;9.63;2.20;;;8.60;99.90;;;;;;4999163;28;20042;-89
2021/04/15 10:58:42;;;;;;;13.65;2.05;;;8.60;99.90;;;;;;4978430;28;20293;-90
2021/04/15 11:01:26;;;;;;;10.45;2.30;;;8.80;99.90;;;;;;4981465;28;20146;-91
2021/04/15 11:03:54;;;;;;;4.78;1.98;;;8.80;99.90;;;;;;4991197;28;20041;-89
2021/04/15 11:06:35;;;;;;;6.45;2.42;;;8.70;99.90;;;;;;5008178;28;20042;-90
2021/04/15 11:09:19;;;;;;;;;;;8.80;99.90;;;;;;4991704;28;20478;-89
2021/04/15 11:12:06;;;;;;;5.90;2.80;;;9.00;99.90;;;;;;5008776;28;19921;-90
2021/04/15 11:14:55;;;;;;;7.38;2.97;;;8.90;99.90;;;;;;5009265;28;20069;-89
2021/04/15 11:17:24;;;;;;;15.52;2.28;;;9.00;99.90;;;;;;4990316;28;20038;-91
2021/04/15 11:20:26;;;;;;;7.75;2.10;;;9.00;99.90;;;;;;5008909;28;20076;-90
2021/04/15 11:23:03;;;;;;;7.35;2.30;;;9.10;99.90;;;;;;5008204;28;20061;-92
2021/04/15 11:25:42;;;;;;;4.60;2.30;;;9.20;99.90;;;;;;4990436;28;20041;-90
2021/04/15 11:28:29;;;;;;;5.13;1.83;;;9.20;99.90;;;;;;4990606;28;20069;-90
2021/04/15 11:30:55;;;;;;;5.80;2.00;;;9.20;99.90;;;;;;5013119;28;20049;-89
2021/04/15 11:33:43;;;;;;;8.65;2.28;;;9.30;99.90;;;;;;4991662;28;20050;-90
2021/04/15 11:36:11;;;;;;;7.35;2.15;;;9.50;99.90;;;;;;5011651;28;20042;-89
2021/04/15 11:38:38;;;;;;;13.82;1.95;;;9.60;99.90;;;;;;4994488;28;20042;-90
2021/04/15 11:41:29;;;;;;;4.57;2.00;;;9.60;99.90;;;;;;4975999;28;20093;-89
2021/04/15 11:44:27;;;;;;;10.02;1.90;;;9.80;99.90;;;;;;4984638;28;20482;-90
2021/04/15 11:47:03;;;;;;;3.72;2.03;;;9.80;99.90;;;;;;5012188;28;20522;-89
2021/04/15 11:49:37;;;;;;;8.38;2.55;;;10.00;99.90;;;;;;4994099;28;20481;-90
2021/04/15 11:52:15;;;;;;;4.40;1.58;;;10.00;99.90;;;;;;4994418;28;20409;-92
2021/04/15 11:54:45;;;;;;;4.05;1.40;;;9.90;99.90;;;;;;4994943;28;20033;-91
2021/04/15 11:57:38;;;;;;;6.55;1.83;;;9.80;99.90;;;;;;4980845;28;20111;-89
2021/04/15 12:00:03;;;;;;;5.90;1.50;;;9.60;99.90;;;;;;5011978;28;20044;-91
2021/04/15 12:02:31;;;;;;;7.20;1.70;;;9.60;99.90;;;;;;4977667;28;20138;-92
2021/04/15 12:05:11;;;;;;;3.95;2.13;;;9.50;99.90;;;;;;4993886;28;20121;-92
2021/04/15 12:07:39;;;;;;;6.55;1.90;;;9.40;99.90;;;;;;4977745;28;20128;-91
2021/04/15 12:10:08;;;;;;;8.60;2.00;;;9.30;99.90;;;;;;4994184;28;20045;-92
2021/04/15 12:12:38;;;;;;;2.90;1.90;;;9.30;99.90;;;;;;4993580;28;20076;-92
2021/04/15 12:15:13;;;;;;;8.50;1.92;;;9.40;99.90;;;;;;4994275;28;20336;-91
2021/04/15 12:17:49;;;;;;;5.00;2.28;;;9.40;99.90;;;;;;4994345;28;20049;-92
2021/04/15 12:20:29;;;;;;;5.35;1.60;;;9.50;99.90;;;;;;4993064;28;20033;-91
2021/04/15 12:23:36;;;;;;;4.32;1.45;;;9.50;99.90;;;;;;4994232;28;20508;-92
2021/04/15 12:26:07;;;;;;;3.50;1.38;;;9.60;99.90;;;;;;4954098;28;20107;-93
2021/04/15 12:28:56;;;;;;;2.70;1.38;;;9.60;99.90;;;;;;4995224;28;20485;-91
2021/04/15 12:31:37;;;;;;;4.80;1.17;;;9.90;94.50;;;;;;4990256;28;20078;-92
2021/04/15 12:34:37;;;;;;;4.00;1.23;;;10.10;92.90;;;;;;5005579;28;20129;-92
2021/04/15 12:37:26;;;;;;;2.35;1.48;;;10.30;90.70;;;;;;4975156;28;20046;-90
2021/04/15 12:40:01;;;;;;;3.75;1.42;;;10.20;92.30;;;;;;4988402;28;20631;-92
2021/04/15 12:42:30;;;;;;;1.38;1.00;;;10.10;81.40;;;;;;4989696;28;20041;-92
2021/04/15 12:45:00;;;;;;;1.45;1.00;;;10.00;88.60;;;;;;4987189;28;20038;-92
2021/04/15 12:47:31;;;;;;;1.92;1.20;;;10.00;87.70;;;;;;4970914;28;20042;-93
2021/04/15 12:49:58;;;;;;;6.50;1.17;;;10.10;93.50;;;;;;4994075;28;20053;-91
2021/04/15 12:52:31;;;;;;;3.35;1.25;;;10.10;85.20;;;;;;4997707;28;20038;-91
2021/04/15 12:54:58;;;;;;;2.03;1.80;;;10.10;93.40;;;;;;4990166;28;20137;-91
2021/04/15 12:57:25;;;;;;;2.97;1.20;;;10.40;94.20;;;;;;4991653;28;20037;-91
2021/04/15 12:59:53;;;;;;;3.28;1.33;;;10.50;91.00;;;;;;4974260;28;20121;-92
2021/04/15 13:02:27;;;;;;;1.08;1.08;;;10.90;95.70;;;;;;4961767;28;20046;-92
2021/04/15 13:05:12;;;;;;;4.40;1.20;;;11.00;85.00;;;;;;4988977;28;20042;-93
2021/04/15 13:07:42;;;;;;;2.00;1.10;;;10.90;77.90;;;;;;4976800;28;20127;-92
2021/04/15 13:10:14;;;;;;;4.55;1.00;;;10.70;82.20;;;;;;4976921;28;20049;-92
2021/04/15 13:12:41;;;;;;;4.28;1.25;;;10.60;74.90;;;;;;4992642;28;20042;-93
2021/04/15 13:15:29;;;;;;;1.77;0.95;;;10.60;79.20;;;;;;4993480;28;20157;-93
2021/04/15 13:17:59;;;;;;;6.57;1.30;;;10.60;79.50;;;;;;4971017;28;20054;-92
2021/04/15 13:20:25;;;;;;;3.80;0.88;;;10.80;83.20;;;;;;5009919;28;20045;-92
2021/04/15 13:23:07;;;;;;;3.08;1.55;;;10.80;70.00;;;;;;5010151;28;20472;-93
2021/04/15 13:25:51;;;;;;;6.28;1.90;;;10.80;85.00;;;;;;4992539;28;20045;-93
2021/04/15 13:28:23;;;;;;;1.38;1.20;;;10.70;94.30;;;;;;4979750;28;20038;-90
2021/04/15 13:31:09;;;;;;;1.23;1.13;;;10.60;83.90;;;;;;4993512;28;20124;-90
2021/04/15 13:33:35;;;;;;;2.50;1.38;;;10.70;95.80;;;;;;5009451;28;20493;-91
2021/04/15 13:36:01;;;;;;;3.15;1.77;;;10.60;82.70;;;;;;5010410;28;20107;-93
2021/04/15 13:38:31;;;;;;;1.70;0.98;;;10.90;89.10;;;;;;4978368;28;20566;-92
2021/04/15 13:40:57;;;;;;;;;;;10.90;88.30;;;;;;4993433;28;20038;-92
2021/04/15 13:43:32;;;;;;;0.30;0.30;;;10.80;76.30;;;;;;4992161;28;20056;-92
2021/04/15 13:46:21;;;;;;;1.77;0.80;;;10.60;81.30;;;;;;4993667;28;20038;-92
2021/04/15 13:48:50;;;;;;;1.35;0.80;;;10.20;86.00;;;;;;4992787;28;20049;-93
2021/04/15 13:51:24;;;;;;;1.75;1.05;;;10.10;67.40;;;;;;4992297;28;20056;-93